Time;durP1;ratioP1;P1;durP2;ratioP2;P2;SDS_P1;SDS_P2;PMS_P1;PMS_P2;Temp;Humidity;BMP_temperature;BMP_pressure;BME280_temperature;BME280_humidity;BME280_pressure;Samples;Min_cycle;Max_cycle;Signal;HPM_P1;HPM_P2
2022/04/02 00:01:44;;;;;;;17.13;10.03;;;-0.50;99.90;;;;;;4370831;28;658836;-70
2022/04/02 00:04:31;;;;;;;16.97;10.87;;;-0.50;99.90;;;;;;4370284;28;658950;-69
2022/04/02 00:07:18;;;;;;;10.87;6.60;;;-0.50;99.90;;;;;;4394313;28;659696;-69
2022/04/02 00:10:07;;;;;;;16.13;9.50;;;-0.40;99.90;;;;;;4375294;28;657744;-69
2022/04/02 00:12:55;;;;;;;17.60;10.43;;;-0.40;99.90;;;;;;4390354;28;658084;-70
2022/04/02 00:15:43;;;;;;;18.37;10.20;;;-0.50;99.90;;;;;;4371964;28;659471;-69
2022/04/02 00:18:32;;;;;;;19.07;10.10;;;-0.30;99.90;;;;;;4376627;28;658592;-70
2022/04/02 00:21:19;;;;;;;14.43;8.07;;;-0.40;99.90;;;;;;4385795;28;657989;-70
2022/04/02 00:24:08;;;;;;;17.30;10.17;;;-0.30;99.90;;;;;;4371745;28;657914;-69
2022/04/02 00:26:55;;;;;;;14.27;9.30;;;-0.30;99.90;;;;;;4375449;28;658804;-70
2022/04/02 00:29:43;;;;;;;16.83;10.53;;;-0.40;99.90;;;;;;4391086;28;659022;-70
2022/04/02 00:32:31;;;;;;;15.77;9.27;;;-0.40;99.90;;;;;;4382201;28;658841;-70
2022/04/02 00:35:19;;;;;;;17.80;10.13;;;-0.40;99.90;;;;;;4382282;28;658639;-69
2022/04/02 00:38:07;;;;;;;17.60;10.00;;;-0.40;99.90;;;;;;4373614;28;658973;-70
2022/04/02 00:40:54;;;;;;;17.27;10.03;;;-0.40;99.90;;;;;;4391420;28;658289;-70
2022/04/02 00:43:42;;;;;;;13.07;8.07;;;-0.50;99.90;;;;;;4367307;28;659113;-70
2022/04/02 00:46:30;;;;;;;22.57;10.43;;;-0.50;99.90;;;;;;4392466;28;658101;-70
2022/04/02 00:49:18;;;;;;;14.13;9.40;;;-0.40;99.90;;;;;;4393436;28;659586;-70
2022/04/02 00:52:07;;;;;;;14.70;8.73;;;-0.50;99.90;;;;;;4388716;28;657986;-70
2022/04/02 00:54:55;;;;;;;15.17;7.93;;;-0.50;99.90;;;;;;4391511;28;658283;-70
2022/04/02 00:57:42;;;;;;;13.50;9.37;;;-0.40;99.90;;;;;;4367947;28;658775;-70
2022/04/02 01:00:29;;;;;;;14.98;8.77;;;-0.50;99.90;;;;;;4393649;28;659041;-70
2022/04/02 01:03:18;;;;;;;14.80;9.53;;;-0.40;99.90;;;;;;4373544;28;659546;-70
2022/04/02 01:06:06;;;;;;;14.30;9.37;;;-0.50;99.90;;;;;;4371820;28;657367;-70
2022/04/02 01:08:54;;;;;;;14.20;8.93;;;-0.50;99.90;;;;;;4397537;28;657747;-70
2022/04/02 01:11:43;;;;;;;14.63;9.10;;;-0.60;99.90;;;;;;4374842;28;657871;-70
2022/04/02 01:14:30;;;;;;;15.27;8.37;;;-0.60;99.90;;;;;;4388143;28;657478;-70
2022/04/02 01:17:18;;;;;;;16.33;9.07;;;-0.50;99.90;;;;;;4398408;28;660504;-70
2022/04/02 01:20:06;;;;;;;15.33;8.07;;;-0.50;99.90;;;;;;4384321;28;658105;-69
2022/04/02 01:22:55;;;;;;;18.33;8.90;;;-0.40;99.90;;;;;;4392826;28;658630;-69
2022/04/02 01:25:42;;;;;;;15.70;8.70;;;-0.40;99.90;;;;;;4373574;28;658118;-69
2022/04/02 01:28:33;;;;;;;14.90;8.50;;;-0.40;99.90;;;;;;4392387;28;657506;-70
2022/04/02 01:31:21;;;;;;;15.00;9.20;;;-0.40;99.90;;;;;;4373523;28;657650;-70
2022/04/02 01:34:08;;;;;;;15.77;9.30;;;-0.50;99.90;;;;;;4393043;28;658057;-70
2022/04/02 01:36:56;;;;;;;16.30;9.30;;;-0.60;99.90;;;;;;4371659;28;657672;-69
2022/04/02 01:39:44;;;;;;;11.07;6.40;;;-0.60;99.90;;;;;;4397204;28;657932;-70
2022/04/02 01:42:32;;;;;;;14.33;9.03;;;-0.50;99.90;;;;;;4372173;28;658244;-69
2022/04/02 01:45:19;;;;;;;13.90;8.60;;;-0.50;99.90;;;;;;4389644;28;657185;-70
2022/04/02 01:48:07;;;;;;;15.23;8.73;;;-0.60;99.90;;;;;;4368393;28;657972;-70
2022/04/02 01:50:54;;;;;;;16.20;9.00;;;-0.50;99.90;;;;;;4390922;28;657825;-70
2022/04/02 01:53:41;;;;;;;14.70;8.00;;;-0.50;99.90;;;;;;4374566;28;657242;-70
2022/04/02 01:56:30;;;;;;;14.17;8.83;;;-0.50;99.90;;;;;;4380357;28;657812;-69
2022/04/02 01:59:18;;;;;;;16.00;8.80;;;-0.50;99.90;;;;;;4369899;28;658328;-70
2022/04/02 02:02:07;;;;;;;15.50;9.30;;;-0.40;99.90;;;;;;4387768;28;657725;-70
2022/04/02 02:04:54;;;;;;;14.88;9.00;;;-0.50;99.90;;;;;;4393995;28;656999;-70
2022/04/02 02:07:41;;;;;;;14.43;8.67;;;-0.50;99.90;;;;;;4374282;28;658249;-70
2022/04/02 02:10:29;;;;;;;22.73;10.60;;;-0.50;99.90;;;;;;4393751;28;658494;-70
2022/04/02 02:13:17;;;;;;;13.30;4.20;;;-0.40;99.90;;;;;;4370638;28;658261;-70
2022/04/02 02:16:05;;;;;;;14.93;9.17;;;-0.40;99.90;;;;;;4387573;28;657907;-70
2022/04/02 02:18:53;;;;;;;17.60;9.57;;;-0.40;99.90;;;;;;4391779;28;658267;-70
2022/04/02 02:21:40;;;;;;;23.33;10.48;;;-0.40;99.90;;;;;;4376969;28;657747;-70
2022/04/02 02:24:28;;;;;;;16.47;8.53;;;-0.50;99.90;;;;;;4388936;28;659698;-70
2022/04/02 02:27:15;;;;;;;13.27;8.17;;;-0.40;99.90;;;;;;4372651;28;658334;-69
2022/04/02 02:30:04;;;;;;;12.93;7.90;;;-0.50;99.90;;;;;;4386842;28;658620;-70
2022/04/02 02:35:49;;;;;;;13.50;8.00;;;-0.50;99.90;;;;;;4371096;28;657416;-70
2022/04/02 02:35:58;;;;;;;12.73;7.67;;;-0.50;99.90;;;;;;4365799;28;657461;-71
2022/04/02 02:38:45;;;;;;;14.00;7.63;;;-0.60;99.90;;;;;;4373693;28;657544;-70
2022/04/02 02:41:33;;;;;;;8.03;4.53;;;-0.50;99.90;;;;;;4387082;28;657977;-70
2022/04/02 02:44:20;;;;;;;12.77;8.20;;;-0.30;99.90;;;;;;4377940;28;656653;-69
2022/04/02 02:47:09;;;;;;;12.97;8.40;;;-0.40;99.90;;;;;;4391334;28;658451;-70
2022/04/02 02:49:57;;;;;;;12.47;7.20;;;-0.40;99.90;;;;;;4372743;28;657376;-70
2022/04/02 02:52:44;;;;;;;12.20;8.03;;;-0.40;99.90;;;;;;4383693;28;657707;-70
2022/04/02 02:55:31;;;;;;;16.50;8.73;;;-0.50;99.90;;;;;;4371038;28;657869;-70
2022/04/02 02:58:19;;;;;;;17.87;7.47;;;-0.60;99.90;;;;;;4384947;28;658339;-70
2022/04/02 03:01:06;;;;;;;14.50;8.07;;;-0.50;99.90;;;;;;4371487;28;657975;-70
2022/04/02 03:03:55;;;;;;;7.53;5.07;;;-0.50;99.90;;;;;;4390066;28;658541;-70
2022/04/02 03:06:42;;;;;;;13.47;8.00;;;-0.60;99.90;;;;;;4374172;28;657378;-70
2022/04/02 03:09:30;;;;;;;5.10;2.43;;;-0.60;99.90;;;;;;4395382;28;657405;-70
2022/04/02 03:12:17;;;;;;;12.87;8.53;;;-0.50;99.90;;;;;;4371970;28;657944;-70
2022/04/02 03:15:05;;;;;;;10.67;7.73;;;-0.50;99.90;;;;;;4394675;28;657458;-70
2022/04/02 03:17:53;;;;;;;12.93;8.27;;;-0.60;99.90;;;;;;4373275;28;658397;-70
2022/04/02 03:20:42;;;;;;;13.93;8.30;;;-0.70;99.90;;;;;;4370538;28;657686;-70
2022/04/02 03:23:29;;;;;;;12.93;8.10;;;-0.70;99.90;;;;;;4394401;28;657462;-70
2022/04/02 03:26:17;;;;;;;10.77;6.97;;;-0.60;99.90;;;;;;4376521;28;657182;-70
2022/04/02 03:29:05;;;;;;;13.10;8.27;;;-0.70;99.90;;;;;;4385445;28;657849;-70
2022/04/02 03:31:52;;;;;;;12.70;6.63;;;-0.70;99.90;;;;;;4369423;28;658852;-70
2022/04/02 03:34:40;;;;;;;12.33;7.67;;;-0.70;99.90;;;;;;4390965;28;657861;-70
2022/04/02 03:37:30;;;;;;;14.10;8.30;;;-0.70;99.90;;;;;;4375617;28;658768;-70
2022/04/02 03:40:20;;;;;;;12.80;8.73;;;-0.60;99.90;;;;;;4370680;28;658705;-70
2022/04/02 03:43:07;;;;;;;13.47;8.10;;;-0.70;99.90;;;;;;4369870;28;659233;-70
2022/04/02 03:47:07;;;;;;;10.60;6.72;;;-0.70;99.90;;;;;;4391506;28;657564;-70
2022/04/02 03:49:02;;;;;;;12.80;7.40;;;-0.70;99.90;;;;;;4344946;28;658225;-70
2022/04/02 03:51:49;;;;;;;12.70;7.90;;;-0.70;99.90;;;;;;4395315;28;657381;-70
2022/04/02 03:54:39;;;;;;;11.93;7.37;;;-0.70;99.90;;;;;;4374316;28;659129;-70
2022/04/02 03:57:26;;;;;;;12.40;7.57;;;-0.60;99.90;;;;;;4368180;28;658579;-70
2022/04/02 04:00:14;;;;;;;12.20;7.67;;;-0.60;99.90;;;;;;4396717;28;658582;-70
2022/04/02 04:03:02;;;;;;;12.40;7.70;;;-0.70;99.90;;;;;;4374381;28;657625;-70
2022/04/02 04:05:49;;;;;;;44.90;8.32;;;-0.70;99.90;;;;;;4391986;28;658149;-70
2022/04/02 04:08:37;;;;;;;12.17;7.37;;;-0.70;99.90;;;;;;4370658;28;658271;-70
2022/04/02 04:11:26;;;;;;;10.43;6.90;;;-0.70;99.90;;;;;;4387398;28;658183;-70
2022/04/02 04:14:14;;;;;;;12.30;7.65;;;-0.60;99.90;;;;;;4368367;28;657697;-70
2022/04/02 04:17:01;;;;;;;10.40;6.87;;;-0.70;99.90;;;;;;4372617;28;657344;-70
2022/04/02 04:19:48;;;;;;;11.07;5.53;;;-0.70;99.90;;;;;;4397554;28;659257;-70
2022/04/02 04:22:36;;;;;;;12.00;7.30;;;-0.70;99.90;;;;;;4379522;28;657921;-70
2022/04/02 04:25:23;;;;;;;14.37;7.83;;;-0.70;99.90;;;;;;4390732;28;658377;-70
2022/04/02 04:28:12;;;;;;;10.00;6.93;;;-0.60;99.90;;;;;;4369525;28;657554;-70
2022/04/02 04:30:59;;;;;;;12.73;7.63;;;-0.60;99.90;;;;;;4389646;28;657055;-70
2022/04/02 04:33:47;;;;;;;10.50;7.43;;;-0.60;99.90;;;;;;4364401;28;657480;-70
2022/04/02 04:36:34;;;;;;;8.13;5.07;;;-0.60;99.90;;;;;;4391548;28;657588;-70
2022/04/02 04:39:21;;;;;;;13.27;7.97;;;-0.60;99.90;;;;;;4379157;28;657042;-70
2022/04/02 04:42:09;;;;;;;11.90;7.80;;;-0.60;99.90;;;;;;4393685;28;657904;-70
2022/04/02 04:44:58;;;;;;;14.13;8.27;;;-0.60;99.90;;;;;;4371828;28;657821;-69
2022/04/02 04:47:46;;;;;;;11.97;7.60;;;-0.50;99.90;;;;;;4373777;28;658104;-70
2022/04/02 04:50:35;;;;;;;12.43;7.50;;;-0.50;99.90;;;;;;4392014;28;657811;-70
2022/04/02 04:53:22;;;;;;;13.10;8.40;;;-0.50;99.90;;;;;;4370289;28;658825;-70
2022/04/02 04:56:09;;;;;;;9.57;6.23;;;-0.50;99.90;;;;;;4397213;28;658055;-70
2022/04/02 04:58:57;;;;;;;11.33;7.73;;;-0.50;99.90;;;;;;4372061;28;657064;-70
2022/04/02 05:01:47;;;;;;;13.03;7.87;;;-0.50;99.90;;;;;;4388203;28;658521;-70
2022/04/02 05:04:34;;;;;;;12.60;8.57;;;-0.50;99.90;;;;;;4370961;28;657813;-70
2022/04/02 05:07:22;;;;;;;12.20;8.07;;;-0.40;99.90;;;;;;4372029;28;657959;-70
2022/04/02 05:10:10;;;;;;;12.97;8.53;;;-0.40;99.90;;;;;;4390407;28;657545;-70
2022/04/02 05:12:57;;;;;;;14.17;8.20;;;-0.50;99.90;;;;;;4365018;28;658805;-70
2022/04/02 05:15:45;;;;;;;10.33;6.93;;;-0.60;99.90;;;;;;4389288;28;657606;-70
2022/04/02 05:18:34;;;;;;;12.93;8.80;;;-0.60;99.90;;;;;;4370208;28;659232;-70
2022/04/02 05:21:21;;;;;;;15.10;8.60;;;-0.60;99.90;;;;;;4373655;28;657594;-70
2022/04/02 05:24:09;;;;;;;14.50;8.57;;;-0.50;99.90;;;;;;4390259;28;657576;-70
2022/04/02 05:26:56;;;;;;;14.60;8.83;;;-0.60;99.90;;;;;;4375115;28;658421;-70
2022/04/02 05:29:44;;;;;;;14.73;8.47;;;-0.60;99.90;;;;;;4390542;28;658040;-70
2022/04/02 05:32:32;;;;;;;13.03;7.97;;;-0.40;99.90;;;;;;4370242;28;657734;-70
2022/04/02 05:35:21;;;;;;;15.30;9.30;;;-0.30;99.90;;;;;;4385329;28;659580;-70
2022/04/02 05:38:08;;;;;;;13.17;9.30;;;-0.40;99.90;;;;;;4368319;28;658882;-70
2022/04/02 05:40:56;;;;;;;14.37;8.83;;;-0.50;99.90;;;;;;4370920;28;657629;-71
2022/04/02 05:43:43;;;;;;;16.60;9.20;;;-0.50;99.90;;;;;;4395398;28;658385;-70
2022/04/02 05:46:30;;;;;;;15.60;9.23;;;-0.40;99.90;;;;;;4367420;28;658072;-70
2022/04/02 05:49:18;;;;;;;13.77;8.37;;;-0.40;99.90;;;;;;4384456;28;658035;-70
2022/04/02 05:52:07;;;;;;;11.43;6.22;;;-0.30;99.90;;;;;;4372856;28;657240;-69
2022/04/02 05:54:55;;;;;;;13.77;8.60;;;-0.40;99.90;;;;;;4396601;28;657639;-70
2022/04/02 05:57:43;;;;;;;12.30;8.17;;;-0.40;99.90;;;;;;4368429;28;658346;-70
2022/04/02 06:00:32;;;;;;;11.03;6.23;;;-0.40;99.90;;;;;;4433972;28;657327;-70
2022/04/02 06:03:20;;;;;;;12.53;7.87;;;-0.20;99.90;;;;;;4386162;28;658555;-70
2022/04/02 06:06:07;;;;;;;14.33;8.63;;;-0.30;99.90;;;;;;4371497;28;657746;-70
2022/04/02 06:08:57;;;;;;;15.30;7.97;;;-0.20;99.90;;;;;;4383617;28;658140;-69
2022/04/02 06:11:45;;;;;;;16.77;9.13;;;-0.10;99.90;;;;;;4392008;28;657477;-70
2022/04/02 06:14:32;;;;;;;17.57;10.47;;;-0.10;99.90;;;;;;4374403;28;657782;-70
2022/04/02 06:17:20;;;;;;;14.50;8.90;;;-0.10;99.90;;;;;;4382733;28;660344;-69
2022/04/02 06:20:09;;;;;;;14.33;8.83;;;-0.10;99.90;;;;;;4387060;28;659777;-70
2022/04/02 06:22:56;;;;;;;14.13;8.07;;;-0.10;99.90;;;;;;4369719;28;657602;-70
2022/04/02 06:25:45;;;;;;;16.47;9.13;;;-0.10;99.90;;;;;;4387167;28;657625;-70
2022/04/02 06:28:32;;;;;;;14.40;9.25;;;0.00;99.90;;;;;;4366832;28;657991;-70
2022/04/02 06:31:20;;;;;;;14.53;8.50;;;0.00;99.90;;;;;;4390707;28;657845;-69
2022/04/02 06:34:08;;;;;;;15.83;9.53;;;0.00;99.90;;;;;;4393201;28;657366;-70
2022/04/02 06:36:55;;;;;;;13.80;8.53;;;0.00;99.90;;;;;;4375119;28;656788;-70
2022/04/02 06:39:43;;;;;;;8.43;5.00;;;0.10;99.90;;;;;;4392104;28;657170;-70
2022/04/02 06:42:32;;;;;;;13.95;8.48;;;0.20;99.90;;;;;;4374596;28;655627;-70
2022/04/02 06:45:19;;;;;;;13.97;9.10;;;0.20;99.90;;;;;;4393610;28;656192;-70
2022/04/02 06:48:07;;;;;;;14.30;7.77;;;0.10;99.90;;;;;;4374257;28;656687;-70
2022/04/02 06:50:55;;;;;;;13.07;8.27;;;0.30;99.90;;;;;;4389778;28;656492;-70
2022/04/02 06:53:42;;;;;;;14.70;8.50;;;0.30;99.90;;;;;;4371146;28;657614;-70
2022/04/02 06:56:29;;;;;;;14.10;8.87;;;0.20;99.90;;;;;;4391389;28;656720;-69
2022/04/02 06:59:18;;;;;;;13.40;8.00;;;0.30;99.90;;;;;;4368135;28;658660;-70
2022/04/02 07:02:06;;;;;;;13.67;8.60;;;0.30;99.90;;;;;;4374348;28;656472;-69
2022/04/02 07:04:53;;;;;;;13.53;8.13;;;0.40;99.90;;;;;;4395695;28;657092;-69
2022/04/02 07:07:41;;;;;;;14.97;7.80;;;0.50;99.90;;;;;;4373828;28;656947;-69
2022/04/02 07:10:28;;;;;;;11.63;8.07;;;0.40;99.90;;;;;;4396581;28;658136;-69
2022/04/02 07:13:16;;;;;;;12.77;8.60;;;0.40;99.90;;;;;;4368924;28;656526;-70
2022/04/02 07:16:05;;;;;;;14.43;9.07;;;0.40;99.90;;;;;;4391546;28;658007;-69
2022/04/02 07:18:53;;;;;;;12.70;7.10;;;0.30;99.90;;;;;;4372218;28;657532;-70
2022/04/02 07:21:41;;;;;;;9.53;5.80;;;0.40;99.90;;;;;;4383675;28;656763;-69
2022/04/02 07:24:28;;;;;;;12.30;7.80;;;0.50;99.90;;;;;;4398862;28;655862;-69
2022/04/02 07:27:15;;;;;;;13.10;7.77;;;0.50;99.90;;;;;;4372317;28;656849;-69
2022/04/02 07:30:03;;;;;;;14.53;8.10;;;0.40;99.90;;;;;;4393575;28;657700;-69
2022/04/02 07:32:52;;;;;;;12.95;8.13;;;0.30;99.90;;;;;;4371121;28;656890;-69
2022/04/02 07:35:43;;;;;;;12.40;7.53;;;0.30;99.90;;;;;;4391376;28;656232;-69
2022/04/02 07:38:35;;;;;;;14.33;7.30;;;0.30;99.90;;;;;;4351886;28;658188;-69
2022/04/02 07:41:26;;;;;;;11.93;7.83;;;0.40;99.90;;;;;;4373100;28;657296;-69
2022/04/02 07:44:31;;;;;;;12.70;7.40;;;0.40;99.90;;;;;;4369578;28;657582;-68
2022/04/02 07:47:21;;;;;;;6.80;4.07;;;0.60;99.90;;;;;;4373537;28;656413;-69
2022/04/02 07:50:13;;;;;;;10.47;6.67;;;0.60;99.90;;;;;;4370003;28;655971;-68
2022/04/02 07:53:00;;;;;;;10.77;6.90;;;0.60;99.90;;;;;;4355660;28;656544;-68
2022/04/02 07:55:49;;;;;;;11.67;7.17;;;0.60;99.90;;;;;;4397949;28;658068;-69
2022/04/02 07:58:37;;;;;;;11.00;6.70;;;0.60;99.90;;;;;;4370895;28;657390;-69
2022/04/02 08:01:24;;;;;;;12.67;7.70;;;0.60;99.90;;;;;;4383548;28;656745;-69
2022/04/02 08:04:12;;;;;;;14.00;7.97;;;0.60;99.90;;;;;;4372265;28;656672;-68
2022/04/02 08:07:01;;;;;;;11.77;7.50;;;0.70;99.90;;;;;;4397097;28;656539;-68
2022/04/02 08:09:49;;;;;;;11.20;6.40;;;0.70;99.90;;;;;;4387698;28;657725;-68
2022/04/02 08:12:36;;;;;;;4.67;2.83;;;0.70;99.90;;;;;;4379236;28;656782;-68
2022/04/02 08:15:24;;;;;;;11.13;7.00;;;0.70;99.90;;;;;;4398603;28;655588;-68
2022/04/02 08:18:14;;;;;;;24.77;10.23;;;0.70;99.90;;;;;;4373323;28;657002;-68
2022/04/02 08:21:02;;;;;;;17.97;8.37;;;0.70;99.90;;;;;;4374405;28;657587;-68
2022/04/02 08:23:51;;;;;;;14.37;7.57;;;0.70;99.90;;;;;;4396387;28;656258;-68
2022/04/02 08:26:42;;;;;;;13.30;7.83;;;0.60;99.90;;;;;;4374901;28;657283;-68
2022/04/02 08:29:46;;;;;;;14.07;8.13;;;0.70;99.90;;;;;;4372481;28;657494;-68
2022/04/02 08:32:42;;;;;;;13.53;8.17;;;0.60;99.90;;;;;;4365185;28;656757;-68
2022/04/02 08:35:31;;;;;;;11.30;7.70;;;0.70;99.90;;;;;;4373069;28;656644;-68
2022/04/02 08:38:23;;;;;;;16.17;9.03;;;0.70;99.90;;;;;;4374090;28;656631;-68
2022/04/02 08:41:44;;;;;;;16.00;8.73;;;0.70;99.90;;;;;;4352571;28;656390;-68
2022/04/02 08:45:03;;;;;;;11.53;7.60;;;0.80;99.90;;;;;;4350452;28;657300;-68
2022/04/02 08:48:25;;;;;;;14.57;7.63;;;0.90;99.90;;;;;;4347360;28;656722;-68
2022/04/02 08:51:16;;;;;;;11.70;7.57;;;0.80;99.90;;;;;;4344412;28;657699;-68
2022/04/02 08:54:04;;;;;;;12.43;7.80;;;0.90;99.90;;;;;;4368177;28;658082;-68
2022/04/02 08:56:59;;;;;;;15.80;8.57;;;0.90;99.90;;;;;;4373152;28;657021;-68
2022/04/02 08:59:46;;;;;;;15.73;8.17;;;0.90;99.90;;;;;;4348426;28;656891;-68
2022/04/02 09:02:57;;;;;;;16.67;7.97;;;0.90;99.90;;;;;;4393292;28;657356;-68
2022/04/02 09:05:55;;;;;;;13.33;7.67;;;1.00;99.90;;;;;;4368906;28;656883;-68
2022/04/02 09:09:03;;;;;;;12.00;7.77;;;1.00;99.90;;;;;;4351943;28;656684;-68
2022/04/02 09:12:08;;;;;;;10.57;7.30;;;1.00;99.90;;;;;;4352594;28;657460;-68
2022/04/02 09:15:06;;;;;;;13.50;8.43;;;0.90;99.90;;;;;;4389201;28;656850;-68
2022/04/02 09:18:01;;;;;;;9.30;5.70;;;0.90;99.90;;;;;;4377590;28;657055;-68
2022/04/02 09:20:54;;;;;;;12.90;7.20;;;0.90;99.90;;;;;;4372024;28;655561;-68
2022/04/02 09:23:45;;;;;;;14.67;8.10;;;1.00;99.90;;;;;;4346902;28;657696;-68
2022/04/02 09:27:17;;;;;;;18.50;9.40;;;1.10;99.90;;;;;;4370647;28;657256;-68
2022/04/02 09:30:07;;;;;;;23.30;9.77;;;1.20;99.90;;;;;;4357821;28;656745;-68
2022/04/02 09:33:22;;;;;;;17.57;10.23;;;1.20;99.90;;;;;;4365522;28;656540;-68
2022/04/02 09:36:25;;;;;;;15.13;9.53;;;1.10;99.90;;;;;;4368219;28;658105;-68
2022/04/02 09:39:16;;;;;;;17.10;9.37;;;1.00;99.90;;;;;;4373899;28;656935;-68
2022/04/02 09:42:13;;;;;;;13.00;8.70;;;0.90;99.90;;;;;;4369941;28;657626;-68
2022/04/02 09:45:03;;;;;;;14.07;8.90;;;0.90;99.90;;;;;;4363352;28;656545;-68
2022/04/02 09:48:01;;;;;;;15.13;9.10;;;0.90;99.90;;;;;;4374747;28;656701;-68
2022/04/02 09:50:49;;;;;;;13.17;8.47;;;0.90;99.90;;;;;;4363322;28;657190;-68
2022/04/02 09:53:39;;;;;;;19.23;9.83;;;0.90;99.90;;;;;;4368087;28;656827;-68
2022/04/02 09:56:28;;;;;;;12.30;6.57;;;1.10;99.90;;;;;;4374216;28;657780;-68
2022/04/02 09:59:19;;;;;;;18.00;10.37;;;1.10;99.90;;;;;;4368660;28;656362;-68
2022/04/02 10:02:07;;;;;;;20.27;11.83;;;1.20;99.90;;;;;;4371426;28;657511;-68
2022/04/02 10:04:55;;;;;;;20.95;11.85;;;1.20;99.90;;;;;;4390677;28;657730;-68
2022/04/02 10:07:50;;;;;;;24.37;13.77;;;1.10;99.90;;;;;;4369414;28;658295;-68
2022/04/02 10:10:38;;;;;;;25.23;14.50;;;1.10;99.90;;;;;;4345596;28;658029;-68
2022/04/02 10:13:25;;;;;;;20.43;13.23;;;1.00;99.90;;;;;;4375854;28;657457;-68
2022/04/02 10:16:13;;;;;;;24.90;13.67;;;0.80;99.90;;;;;;4385204;28;658611;-68
2022/04/02 10:19:02;;;;;;;15.77;7.37;;;0.70;99.90;;;;;;4368953;28;657694;-68
2022/04/02 10:21:51;;;;;;;23.77;14.27;;;0.70;99.90;;;;;;4392967;28;656608;-68
2022/04/02 10:24:38;;;;;;;23.70;12.40;;;0.70;99.90;;;;;;4364510;28;658041;-68
2022/04/02 10:27:30;;;;;;;24.70;12.77;;;0.70;99.90;;;;;;4365235;28;658118;-68
2022/04/02 10:30:19;;;;;;;15.37;9.00;;;0.80;99.90;;;;;;4362626;28;658531;-68
2022/04/02 10:36:09;;;;;;;16.83;10.03;;;0.60;99.90;;;;;;4341473;28;657783;-68
2022/04/02 10:38:58;;;;;;;20.23;11.57;;;0.60;99.90;;;;;;4371636;28;658201;-68
2022/04/02 10:41:46;;;;;;;22.33;12.10;;;0.70;99.90;;;;;;4373266;28;658421;-68
2022/04/02 10:44:37;;;;;;;21.20;11.93;;;0.90;99.90;;;;;;4391047;28;657730;-68
2022/04/02 10:47:27;;;;;;;22.30;12.70;;;0.80;99.90;;;;;;4368434;28;657402;-68
2022/04/02 10:50:18;;;;;;;21.23;12.40;;;0.90;99.90;;;;;;4389045;28;657300;-68
2022/04/02 10:53:06;;;;;;;23.80;12.87;;;0.80;99.90;;;;;;4380027;28;657365;-68
2022/04/02 10:55:59;;;;;;;22.07;13.27;;;0.80;99.90;;;;;;4392142;28;658405;-68
2022/04/02 10:58:48;;;;;;;24.07;12.97;;;0.80;99.90;;;;;;4342685;28;659183;-68
2022/04/02 11:01:36;;;;;;;17.50;8.50;;;0.80;99.90;;;;;;4383276;28;657537;-67
2022/04/02 11:04:29;;;;;;;23.13;13.67;;;0.80;99.90;;;;;;4391804;28;656833;-68
2022/04/02 11:07:26;;;;;;;21.90;13.30;;;1.00;99.90;;;;;;4342639;28;657602;-68
2022/04/02 11:10:14;;;;;;;23.73;14.00;;;1.00;99.90;;;;;;4369091;28;658323;-68
2022/04/02 11:13:04;;;;;;;27.80;13.73;;;1.20;99.90;;;;;;4368176;28;658118;-71
2022/04/02 11:15:51;;;;;;;27.48;14.13;;;1.30;99.90;;;;;;4367488;28;657606;-71
2022/04/02 11:19:53;;;;;;;18.73;10.82;;;1.50;99.90;;;;;;4394176;28;658643;-71
2022/04/02 11:21:50;;;;;;;20.60;12.37;;;1.40;99.90;;;;;;4341266;28;658179;-71
2022/04/02 11:24:41;;;;;;;20.20;11.67;;;1.30;99.90;;;;;;4368717;28;658116;-71
2022/04/02 11:27:29;;;;;;;34.60;18.73;;;1.20;99.90;;;;;;4373366;28;657984;-71
2022/04/02 11:30:20;;;;;;;28.30;16.70;;;1.10;99.90;;;;;;4374955;28;657368;-73
2022/04/02 11:33:08;;;;;;;31.47;15.87;;;0.90;99.90;;;;;;4374463;28;657783;-73
2022/04/02 11:35:57;;;;;;;25.40;13.53;;;0.90;99.90;;;;;;4371752;28;657630;-72
2022/04/02 11:38:47;;;;;;;22.03;12.67;;;1.00;99.90;;;;;;4393252;28;658007;-73
2022/04/02 11:41:38;;;;;;;22.00;12.07;;;1.10;99.90;;;;;;4389600;28;659018;-72
2022/04/02 11:44:35;;;;;;;23.67;11.90;;;1.20;99.90;;;;;;4370036;28;659146;-71
2022/04/02 11:47:28;;;;;;;20.33;11.37;;;1.30;99.90;;;;;;4343865;28;658251;-71
2022/04/02 11:50:22;;;;;;;15.05;9.38;;;1.10;99.90;;;;;;4350499;28;657858;-71
2022/04/02 11:53:10;;;;;;;17.70;10.83;;;1.00;99.90;;;;;;4395877;28;656765;-72
2022/04/02 11:55:58;;;;;;;18.50;11.43;;;0.90;99.90;;;;;;4396129;28;658356;-71
2022/04/02 11:58:45;;;;;;;18.40;10.90;;;0.80;99.90;;;;;;4375675;28;657615;-71
2022/04/02 12:01:40;;;;;;;23.47;12.53;;;0.70;99.90;;;;;;4389390;28;659270;-72
2022/04/02 12:04:29;;;;;;;21.27;11.47;;;0.60;99.90;;;;;;4362720;28;657560;-72
2022/04/02 12:07:17;;;;;;;25.50;14.63;;;0.70;99.90;;;;;;4374778;28;658408;-72
2022/04/02 12:10:05;;;;;;;25.77;15.03;;;0.50;99.90;;;;;;4395136;28;657598;-69
2022/04/02 12:12:53;;;;;;;28.65;15.90;;;0.40;99.90;;;;;;4376370;28;657867;-71
2022/04/02 12:15:41;;;;;;;29.60;16.77;;;0.30;99.90;;;;;;4369752;28;658108;-73
2022/04/02 12:18:28;;;;;;;28.23;17.00;;;0.20;99.90;;;;;;4392319;28;658280;-73
2022/04/02 12:21:17;;;;;;;30.07;16.47;;;0.20;99.90;;;;;;4378116;28;657956;-72
2022/04/02 12:24:05;;;;;;;21.43;11.00;;;0.20;99.90;;;;;;4391225;28;658408;-72
2022/04/02 12:26:52;;;;;;;19.60;10.32;;;0.10;99.90;;;;;;4375392;28;657809;-71
2022/04/02 12:29:40;;;;;;;32.63;17.63;;;0.20;99.90;;;;;;4393059;28;656963;-72
2022/04/02 12:32:32;;;;;;;33.10;19.10;;;0.20;99.90;;;;;;4364691;28;658763;-71
2022/04/02 12:35:24;;;;;;;33.10;17.00;;;0.10;99.90;;;;;;4366255;28;657417;-72
2022/04/02 12:38:25;;;;;;;33.60;17.33;;;0.20;99.90;;;;;;4373935;28;657770;-72
2022/04/02 12:41:20;;;;;;;35.00;18.70;;;0.30;99.90;;;;;;4350235;28;658168;-73
2022/04/02 12:44:09;;;;;;;32.67;18.73;;;0.30;99.90;;;;;;4367181;28;658172;-72
2022/04/02 12:47:08;;;;;;;31.27;18.07;;;0.20;99.90;;;;;;4373452;28;658226;-72
2022/04/02 12:49:56;;;;;;;11.90;5.67;;;0.20;99.90;;;;;;4347662;28;657721;-73
2022/04/02 12:52:47;;;;;;;30.73;18.00;;;0.30;99.90;;;;;;4390546;28;658399;-73
2022/04/02 12:55:36;;;;;;;27.80;15.73;;;0.10;99.90;;;;;;4373382;28;657404;-72
2022/04/02 12:58:31;;;;;;;30.13;16.50;;;0.10;99.90;;;;;;4369264;28;658008;-72
2022/04/02 13:01:28;;;;;;;32.77;18.60;;;0.00;99.90;;;;;;4369503;28;657933;-68
2022/04/02 13:04:15;;;;;;;32.50;18.50;;;-0.10;99.90;;;;;;4350962;28;657857;-68
2022/04/02 13:07:03;;;;;;;31.33;13.23;;;-0.20;99.90;;;;;;4391282;28;659988;-68
2022/04/02 13:09:52;;;;;;;26.83;13.90;;;-0.10;99.90;;;;;;4374940;28;658681;-68
2022/04/02 14:44:28;;;;;;;44.97;22.50;;;-0.50;99.90;;;;;;5045784;28;20786;-68
2022/04/02 14:47:51;;;;;;;41.80;20.83;;;0.10;99.90;;;;;;5062404;28;20184;-67
2022/04/02 14:50:59;;;;;;;39.70;19.90;;;0.20;99.90;;;;;;5081634;28;20202;-67
2022/04/02 14:54:12;;;;;;;40.43;19.07;;;0.20;99.90;;;;;;5100285;28;20199;-68
2022/04/02 14:57:18;;;;;;;35.93;17.50;;;0.30;99.90;;;;;;5076763;28;20219;-67
2022/04/02 15:00:29;;;;;;;41.87;20.27;;;0.40;99.90;;;;;;5083906;28;20207;-67
2022/04/02 15:03:52;;;;;;;35.60;19.30;;;0.20;99.90;;;;;;5083551;28;20200;-67
2022/04/02 15:06:50;;;;;;;42.30;19.60;;;0.10;99.90;;;;;;5084844;28;20203;-67
2022/04/02 15:09:56;;;;;;;36.30;19.50;;;0.20;99.90;;;;;;5079002;28;20246;-67
2022/04/02 15:12:43;;;;;;;37.33;19.20;;;0.00;99.90;;;;;;5082472;28;20567;-67
2022/04/02 15:15:39;;;;;;;37.03;18.67;;;0.10;99.90;;;;;;5076260;28;20259;-67
2022/04/02 15:18:27;;;;;;;35.00;19.03;;;0.10;99.90;;;;;;5079563;28;20199;-67
2022/04/02 15:21:15;;;;;;;35.20;19.47;;;0.20;99.90;;;;;;5084760;28;20199;-67
2022/04/02 15:24:13;;;;;;;31.97;17.67;;;0.10;99.90;;;;;;4486993;28;653647;-67
2022/04/02 15:27:01;;;;;;;34.83;19.10;;;0.20;99.90;;;;;;4439472;28;653625;-67
2022/04/02 15:29:49;;;;;;;43.10;20.30;;;0.20;99.90;;;;;;4435937;28;653976;-67
2022/04/02 15:32:42;;;;;;;36.67;19.47;;;0.10;99.90;;;;;;4420422;28;653380;-67
2022/04/02 15:35:29;;;;;;;45.60;20.00;;;0.00;99.90;;;;;;4423047;28;653577;-67
2022/04/02 15:38:20;;;;;;;38.83;19.20;;;-0.10;99.90;;;;;;4396264;28;653767;-67
2022/04/02 15:41:08;;;;;;;41.90;18.60;;;-0.20;99.90;;;;;;4393106;28;655836;-67
2022/04/02 15:43:55;;;;;;;48.33;20.77;;;-0.10;99.90;;;;;;4387201;28;654402;-67
2022/04/02 15:46:43;;;;;;;51.60;23.43;;;-0.10;99.90;;;;;;4419304;28;655218;-67
2022/04/02 15:49:35;;;;;;;41.88;21.67;;;-0.20;99.90;;;;;;4388304;28;654552;-67
2022/04/02 15:52:23;;;;;;;46.37;22.67;;;-0.20;99.90;;;;;;4388823;28;655377;-67
2022/04/02 15:55:19;;;;;;;54.60;24.37;;;-0.10;99.90;;;;;;4398589;28;654528;-67
2022/04/02 15:58:29;;;;;;;47.05;24.45;;;-0.20;99.90;;;;;;4385103;28;654465;-67
2022/04/02 16:01:20;;;;;;;47.97;23.33;;;-0.10;99.90;;;;;;4391318;28;654633;-67